createdAt,value
2023-05-14T00:02:06.492Z,17.17
2023-05-14T00:04:33.726Z,17.06
2023-05-14T00:07:00.943Z,17.01
2023-05-14T00:09:28.053Z,16.96
2023-05-14T00:11:54.818Z,16.96
2023-05-14T00:14:22.016Z,17.00
2023-05-14T00:16:48.930Z,16.95
2023-05-14T00:19:15.970Z,16.92
2023-05-14T00:21:42.775Z,16.90
2023-05-14T00:24:09.868Z,16.83
2023-05-14T00:26:36.562Z,16.75
2023-05-14T00:29:03.553Z,16.79
2023-05-14T00:31:30.598Z,16.83
2023-05-14T00:33:57.622Z,16.77
2023-05-14T00:36:24.310Z,16.72
2023-05-14T00:38:51.383Z,16.66
2023-05-14T00:41:18.156Z,16.62
2023-05-14T00:43:45.363Z,16.61
2023-05-14T00:46:12.585Z,16.61
2023-05-14T00:48:39.669Z,16.60
2023-05-14T00:51:06.727Z,16.54
2023-05-14T00:53:33.838Z,16.51
2023-05-14T00:56:00.739Z,16.42
2023-05-14T00:58:27.713Z,16.44
2023-05-14T01:00:54.482Z,16.40
2023-05-14T01:03:21.627Z,16.40
2023-05-14T01:06:06.829Z,16.36
2023-05-14T01:08:59.596Z,16.29
2023-05-14T01:11:47.010Z,16.29
2023-05-14T01:14:21.617Z,16.23
2023-05-14T01:16:53.179Z,16.24
2023-05-14T01:19:43.988Z,16.23
2023-05-14T01:22:11.175Z,16.18
2023-05-14T01:24:38.232Z,16.16
2023-05-14T01:27:08.039Z,16.15
2023-05-14T01:29:35.469Z,16.18
2023-05-14T01:32:02.233Z,16.14
2023-05-14T01:34:29.261Z,16.07
2023-05-14T01:36:56.048Z,16.07
2023-05-14T01:39:23.252Z,16.05
2023-05-14T01:41:49.956Z,15.99
2023-05-14T01:44:17.171Z,15.93
2023-05-14T01:46:43.886Z,15.96
2023-05-14T01:49:10.954Z,15.88
2023-05-14T01:51:37.909Z,15.90
2023-05-14T01:54:05.010Z,15.84
2023-05-14T01:56:31.713Z,15.79
2023-05-14T01:58:58.705Z,15.78
2023-05-14T02:01:26.264Z,15.73
2023-05-14T02:03:53.351Z,15.75
2023-05-14T02:06:20.076Z,15.70
2023-05-14T02:08:47.136Z,15.72
2023-05-14T02:11:14.008Z,15.71
2023-05-14T02:13:41.140Z,15.66
2023-05-14T02:16:08.213Z,15.62
2023-05-14T02:18:35.409Z,15.60
2023-05-14T02:21:02.232Z,15.54
2023-05-14T02:23:40.512Z,15.57
2023-05-14T02:26:09.642Z,15.51
2023-05-14T02:28:36.844Z,15.44
2023-05-14T02:31:03.602Z,15.33
2023-05-14T02:33:30.852Z,15.44
2023-05-14T02:35:57.622Z,15.42
2023-05-14T02:38:25.724Z,15.36
2023-05-14T02:40:52.604Z,15.36
2023-05-14T02:43:19.629Z,15.33
2023-05-14T02:45:46.944Z,15.27
2023-05-14T02:48:14.221Z,15.23
2023-05-14T02:50:40.932Z,15.19
2023-05-14T02:53:08.736Z,15.12
2023-05-14T02:55:35.632Z,15.16
2023-05-14T02:58:02.654Z,15.16
2023-05-14T03:00:29.392Z,15.13
2023-05-14T03:02:56.806Z,15.16
2023-05-14T03:05:23.958Z,15.08
2023-05-14T03:07:53.754Z,15.02
2023-05-14T03:10:20.837Z,15.03
2023-05-14T03:12:47.958Z,14.98
2023-05-14T03:15:14.703Z,14.98
2023-05-14T03:17:41.847Z,14.96
2023-05-14T03:20:08.939Z,14.95
2023-05-14T03:22:35.906Z,14.92
2023-05-14T03:25:02.654Z,14.94
2023-05-14T03:27:29.613Z,14.89
2023-05-14T03:29:56.298Z,14.87
2023-05-14T03:32:23.369Z,14.86
2023-05-14T03:34:51.635Z,14.81
2023-05-14T03:37:18.629Z,14.86
2023-05-14T03:39:45.429Z,14.77
2023-05-14T03:42:12.627Z,14.76
2023-05-14T03:44:39.313Z,14.72
2023-05-14T03:47:06.356Z,14.67
2023-05-14T03:49:33.261Z,14.66
2023-05-14T03:52:00.371Z,14.65
2023-05-14T03:54:27.132Z,14.64
2023-05-14T03:56:54.174Z,14.61
2023-05-14T03:59:20.857Z,14.64
2023-05-14T04:01:47.933Z,14.60
2023-05-14T04:04:14.759Z,14.55
2023-05-14T04:06:41.814Z,14.57
2023-05-14T04:09:08.512Z,14.56
2023-05-14T04:11:35.570Z,14.54
2023-05-14T04:14:02.394Z,14.55
2023-05-14T04:16:29.501Z,14.61
2023-05-14T04:18:56.304Z,14.65
2023-05-14T04:21:23.346Z,14.60
2023-05-14T04:23:51.632Z,14.59
2023-05-14T04:26:18.648Z,14.63
2023-05-14T04:28:45.738Z,14.68
2023-05-14T04:31:12.832Z,14.63
2023-05-14T04:33:39.960Z,14.71
2023-05-14T04:36:07.267Z,14.66
2023-05-14T04:38:34.070Z,14.71
2023-05-14T04:41:01.051Z,14.72
2023-05-14T04:43:27.713Z,14.73
2023-05-14T04:45:54.789Z,14.81
2023-05-14T04:48:21.722Z,14.89
2023-05-14T04:50:48.758Z,14.99
2023-05-14T04:53:15.477Z,14.93
2023-05-14T04:55:42.512Z,14.91
2023-05-14T04:58:09.281Z,14.96
2023-05-14T05:00:36.374Z,14.97
2023-05-14T05:03:03.423Z,15.02
2023-05-14T05:05:30.695Z,15.06
2023-05-14T05:07:57.401Z,15.10
2023-05-14T05:10:24.714Z,15.13
2023-05-14T05:12:51.657Z,15.21
2023-05-14T05:15:18.680Z,15.26
2023-05-14T05:17:45.875Z,15.32
2023-05-14T05:20:13.364Z,15.34
2023-05-14T05:22:40.169Z,15.44
2023-05-14T05:25:09.075Z,15.48
2023-05-14T05:27:35.890Z,15.54
2023-05-14T05:30:04.021Z,15.57
2023-05-14T05:32:31.138Z,15.66
2023-05-14T05:34:58.219Z,15.69
2023-05-14T05:37:24.932Z,15.74
2023-05-14T05:39:52.039Z,15.83
2023-05-14T05:42:18.746Z,15.87
2023-05-14T05:44:45.866Z,15.95
2023-05-14T05:47:12.584Z,16.03
2023-05-14T05:49:39.570Z,16.06
2023-05-14T05:52:06.494Z,16.13
2023-05-14T05:54:33.728Z,16.24
2023-05-14T05:57:00.727Z,16.32
2023-05-14T05:59:27.788Z,16.38
2023-05-14T06:01:54.552Z,16.45
2023-05-14T06:04:21.680Z,16.48
2023-05-14T06:06:48.410Z,16.54
2023-05-14T06:09:16.031Z,16.59
2023-05-14T06:11:42.811Z,16.67
2023-05-14T06:14:09.844Z,16.72
2023-05-14T06:16:36.711Z,16.79
2023-05-14T06:19:03.799Z,16.85
2023-05-14T06:21:30.625Z,16.88
2023-05-14T06:23:57.670Z,16.98
2023-05-14T06:26:24.409Z,17.06
2023-05-14T06:28:51.439Z,17.07
2023-05-14T06:31:18.755Z,17.19
2023-05-14T06:33:45.745Z,17.27
2023-05-14T06:36:12.455Z,17.30
2023-05-14T06:38:39.505Z,17.37
2023-05-14T06:41:06.233Z,17.43
2023-05-14T06:43:33.307Z,17.55
2023-05-14T06:46:00.291Z,17.59
2023-05-14T06:48:29.447Z,17.67
2023-05-14T06:50:56.323Z,17.73
2023-05-14T06:53:23.408Z,17.85
2023-05-14T06:55:50.808Z,17.92
2023-05-14T06:58:17.860Z,18.01
2023-05-14T07:00:44.615Z,18.06
2023-05-14T07:03:11.672Z,18.18
2023-05-14T07:05:38.489Z,18.25
2023-05-14T07:08:05.692Z,18.36
2023-05-14T07:10:32.759Z,18.46
2023-05-14T07:12:59.747Z,18.48
2023-05-14T07:15:26.537Z,18.58
2023-05-14T07:17:53.587Z,18.63
2023-05-14T07:20:20.546Z,18.68
2023-05-14T07:22:48.410Z,18.80
2023-05-14T07:25:15.218Z,18.86
2023-05-14T07:27:42.208Z,18.96
2023-05-14T07:30:09.191Z,19.04
2023-05-14T07:32:36.190Z,19.17
2023-05-14T07:35:03.042Z,19.18
2023-05-14T07:37:30.129Z,19.26
2023-05-14T07:39:56.861Z,19.33
2023-05-14T07:42:35.027Z,19.39
2023-05-14T07:45:03.586Z,19.50
2023-05-14T07:47:30.830Z,19.60
2023-05-14T07:49:57.776Z,19.68
2023-05-14T07:52:24.977Z,19.80
2023-05-14T07:54:52.068Z,19.88
2023-05-14T07:57:19.869Z,19.92
2023-05-14T07:59:47.799Z,20.03
2023-05-14T08:02:16.225Z,20.07
2023-05-14T08:04:43.211Z,20.17
2023-05-14T08:07:10.332Z,20.28
2023-05-14T08:09:37.149Z,20.34
2023-05-14T08:12:04.498Z,20.43
2023-05-14T08:14:31.200Z,20.48
2023-05-14T08:16:58.355Z,20.65
2023-05-14T08:19:27.383Z,20.73
2023-05-14T08:21:54.627Z,20.83
2023-05-14T08:24:21.436Z,20.92
2023-05-14T08:26:48.528Z,20.99
2023-05-14T08:29:16.589Z,21.07
2023-05-14T08:31:44.060Z,21.16
2023-05-14T08:34:10.889Z,21.29
2023-05-14T08:36:38.828Z,21.37
2023-05-14T08:39:07.780Z,21.46
2023-05-14T08:41:35.045Z,21.59
2023-05-14T08:44:14.955Z,21.70
2023-05-14T08:46:42.009Z,21.76
2023-05-14T08:49:16.817Z,21.86
2023-05-14T08:51:49.832Z,21.95
2023-05-14T08:54:17.784Z,22.03
2023-05-14T08:56:46.322Z,22.13
2023-05-14T08:59:13.320Z,22.21
2023-05-14T09:01:44.618Z,22.33
2023-05-14T09:04:11.547Z,22.42
2023-05-14T09:06:38.682Z,22.50
2023-05-14T09:09:05.930Z,22.63
2023-05-14T09:11:33.075Z,22.71
2023-05-14T09:13:59.836Z,22.72
2023-05-14T09:16:27.012Z,22.80
2023-05-14T09:18:54.330Z,22.93
2023-05-14T09:21:21.383Z,22.99
2023-05-14T09:23:49.774Z,23.12
2023-05-14T09:26:17.590Z,23.21
2023-05-14T09:28:44.338Z,23.26
2023-05-14T09:31:11.460Z,23.30
2023-05-14T09:33:38.194Z,23.43
2023-05-14T09:36:05.654Z,23.48
2023-05-14T09:38:32.837Z,23.59
2023-05-14T09:41:00.238Z,23.60
2023-05-14T09:43:26.942Z,23.69
2023-05-14T09:45:54.039Z,23.79
2023-05-14T09:48:22.443Z,23.90
2023-05-14T09:50:49.695Z,24.02
2023-05-14T09:53:17.695Z,24.08
2023-05-14T09:55:45.290Z,24.18
2023-05-14T09:58:14.403Z,24.24
2023-05-14T10:00:44.560Z,24.32
2023-05-14T10:03:13.259Z,24.42
2023-05-14T10:05:41.457Z,24.53
2023-05-14T10:08:35.225Z,24.62
2023-05-14T10:11:04.720Z,24.71
2023-05-14T10:13:33.673Z,24.81
2023-05-14T10:16:02.598Z,24.89
2023-05-14T10:18:31.190Z,25.04
2023-05-14T10:21:05.608Z,25.06
2023-05-14T10:23:32.759Z,25.11
2023-05-14T10:25:59.880Z,25.14
2023-05-14T10:28:27.145Z,25.18
2023-05-14T10:30:54.506Z,25.27
2023-05-14T10:33:21.367Z,25.31
2023-05-14T10:35:59.799Z,25.29
2023-05-14T10:38:33.684Z,25.40
2023-05-14T10:41:21.670Z,25.43
2023-05-14T10:43:48.445Z,25.57
2023-05-14T10:46:15.594Z,25.55
2023-05-14T10:48:43.225Z,25.58
2023-05-14T10:51:10.930Z,25.63
2023-05-14T10:53:39.571Z,25.65
2023-05-14T10:56:08.025Z,25.72
2023-05-14T10:58:38.449Z,25.75
2023-05-14T11:01:06.744Z,25.78
2023-05-14T11:03:38.560Z,25.81
2023-05-14T11:06:05.742Z,25.81
2023-05-14T11:08:32.448Z,25.81
2023-05-14T11:10:59.730Z,25.87
2023-05-14T11:13:26.682Z,25.92
2023-05-14T11:15:53.987Z,25.99
2023-05-14T11:18:31.036Z,25.96
2023-05-14T11:21:01.611Z,25.96
2023-05-14T11:23:28.679Z,26.01
2023-05-14T11:25:56.398Z,26.01
2023-05-14T11:28:23.631Z,26.03
2023-05-14T11:30:50.864Z,26.00
2023-05-14T11:33:17.872Z,26.04
2023-05-14T11:35:46.501Z,26.01
2023-05-14T11:38:19.496Z,26.06
2023-05-14T11:40:56.153Z,26.03
2023-05-14T11:43:23.875Z,26.04
2023-05-14T11:45:52.272Z,26.04
2023-05-14T11:48:19.965Z,26.04
2023-05-14T11:50:51.428Z,26.08
2023-05-14T11:53:29.707Z,26.06
2023-05-14T11:55:59.602Z,26.07
2023-05-14T11:58:26.435Z,26.05
2023-05-14T12:00:53.634Z,26.07
2023-05-14T12:03:26.412Z,26.05
2023-05-14T12:06:00.803Z,26.05
2023-05-14T12:08:31.383Z,26.07
2023-05-14T12:10:59.411Z,26.05
2023-05-14T12:13:29.846Z,26.06
2023-05-14T12:15:58.070Z,26.06
2023-05-14T12:18:25.690Z,26.05
2023-05-14T12:20:52.975Z,26.06
2023-05-14T12:23:46.213Z,26.02
2023-05-14T12:26:13.334Z,26.06
2023-05-14T12:28:43.649Z,26.04
2023-05-14T12:31:10.972Z,26.04
2023-05-14T12:33:37.800Z,26.00
2023-05-14T12:36:20.516Z,26.03
2023-05-14T12:38:47.823Z,26.01
2023-05-14T12:41:14.803Z,26.01
2023-05-14T12:43:44.793Z,26.03
2023-05-14T12:46:11.918Z,26.01
2023-05-14T12:48:38.636Z,25.99
2023-05-14T12:51:06.289Z,26.01
2023-05-14T12:53:33.935Z,25.98
2023-05-14T12:56:01.024Z,25.96
2023-05-14T12:58:27.755Z,25.95
2023-05-14T13:00:54.850Z,25.97
2023-05-14T13:03:21.690Z,25.95
2023-05-14T13:05:48.729Z,25.94
2023-05-14T13:08:17.820Z,25.92
2023-05-14T13:10:45.183Z,25.90
2023-05-14T13:13:11.974Z,25.88
2023-05-14T13:15:39.055Z,25.87
2023-05-14T13:18:05.981Z,25.88
2023-05-14T13:20:33.781Z,25.88
2023-05-14T13:23:00.694Z,25.90
2023-05-14T13:25:28.022Z,25.90
2023-05-14T13:27:55.166Z,25.86
2023-05-14T13:30:22.579Z,25.86
2023-05-14T13:32:49.458Z,25.89
2023-05-14T13:35:16.682Z,25.87
2023-05-14T13:37:43.729Z,25.89
2023-05-14T13:40:11.301Z,25.89
2023-05-14T13:42:39.883Z,25.86
2023-05-14T13:45:07.581Z,25.87
2023-05-14T13:47:34.442Z,25.87
2023-05-14T13:50:01.583Z,25.84
2023-05-14T13:52:28.462Z,25.88
2023-05-14T13:54:56.525Z,25.86
2023-05-14T13:57:23.371Z,25.86
2023-05-14T13:59:50.465Z,25.84
2023-05-14T14:02:17.831Z,25.83
2023-05-14T14:04:45.027Z,25.81
2023-05-14T14:07:11.840Z,25.78
2023-05-14T14:09:38.962Z,25.78
2023-05-14T14:12:06.227Z,25.80
2023-05-14T14:14:33.381Z,25.82
2023-05-14T14:17:00.158Z,25.80
2023-05-14T14:19:27.338Z,25.79
2023-05-14T14:21:54.184Z,25.77
2023-05-14T14:24:21.319Z,25.79
2023-05-14T14:26:48.694Z,25.78
2023-05-14T14:29:15.760Z,25.77
2023-05-14T14:31:44.507Z,25.71
2023-05-14T14:34:11.621Z,25.71
2023-05-14T14:36:38.464Z,25.66
2023-05-14T14:39:05.875Z,25.66
2023-05-14T14:41:32.626Z,25.64
2023-05-14T14:43:59.833Z,25.65
2023-05-14T14:46:27.025Z,25.64
2023-05-14T14:48:54.245Z,25.60
2023-05-14T14:51:21.190Z,25.60
2023-05-14T14:53:48.329Z,25.57
2023-05-14T14:56:15.688Z,25.54
2023-05-14T14:58:42.892Z,25.53
2023-05-14T15:01:09.818Z,25.53
2023-05-14T15:03:37.071Z,25.50
2023-05-14T15:06:04.182Z,25.45
2023-05-14T15:08:31.424Z,25.44
2023-05-14T15:10:59.371Z,25.40
2023-05-14T15:13:27.174Z,25.38
2023-05-14T15:15:54.070Z,25.40
2023-05-14T15:18:22.959Z,25.34
2023-05-14T15:20:50.048Z,25.31
2023-05-14T15:23:17.312Z,25.28
2023-05-14T15:25:44.355Z,25.21
2023-05-14T15:28:11.579Z,25.17
2023-05-14T15:30:38.417Z,25.13
2023-05-14T15:33:07.426Z,25.11
2023-05-14T15:35:34.278Z,25.08
2023-05-14T15:38:01.355Z,25.05
2023-05-14T15:40:28.247Z,25.04
2023-05-14T15:42:55.422Z,24.99
2023-05-14T15:45:22.259Z,24.98
2023-05-14T15:47:49.705Z,24.95
2023-05-14T15:50:16.466Z,24.93
2023-05-14T15:52:43.804Z,24.90
2023-05-14T15:55:10.878Z,24.88
2023-05-14T15:57:37.924Z,24.85
2023-05-14T16:00:14.426Z,24.82
2023-05-14T16:02:41.590Z,24.78
2023-05-14T16:05:08.738Z,24.77
2023-05-14T16:07:36.405Z,24.74
2023-05-14T16:10:03.652Z,24.69
2023-05-14T16:12:30.911Z,24.66
2023-05-14T16:14:57.800Z,24.62
2023-05-14T16:17:26.234Z,24.59
2023-05-14T16:19:54.646Z,24.58
2023-05-14T16:22:23.436Z,24.55
2023-05-14T16:24:50.206Z,24.49
2023-05-14T16:27:19.146Z,24.47
2023-05-14T16:29:46.059Z,24.45
2023-05-14T16:32:13.425Z,24.41
2023-05-14T16:34:40.663Z,24.39
2023-05-14T16:37:08.154Z,24.34
2023-05-14T16:39:34.960Z,24.31
2023-05-14T16:42:02.051Z,24.29
2023-05-14T16:44:30.249Z,24.25
2023-05-14T16:46:57.417Z,24.21
2023-05-14T16:49:24.357Z,24.17
2023-05-14T16:51:51.483Z,24.14
2023-05-14T16:54:18.331Z,24.06
2023-05-14T16:56:49.395Z,23.99
2023-05-14T16:59:16.472Z,23.96
2023-05-14T17:01:43.986Z,23.93
2023-05-14T17:04:10.888Z,23.88
2023-05-14T17:06:38.052Z,23.84
2023-05-14T17:09:05.267Z,23.77
2023-05-14T17:11:32.578Z,23.71
2023-05-14T17:13:59.276Z,23.70
2023-05-14T17:16:27.214Z,23.62
2023-05-14T17:18:56.519Z,23.55
2023-05-14T17:21:23.822Z,23.50
2023-05-14T17:23:50.783Z,23.45
2023-05-14T17:26:17.878Z,23.38
2023-05-14T17:28:46.204Z,23.31
2023-05-14T17:31:13.337Z,23.29
2023-05-14T17:33:40.237Z,23.25
2023-05-14T17:36:07.569Z,23.19
2023-05-14T17:38:34.796Z,23.13
2023-05-14T17:41:02.146Z,23.11
2023-05-14T17:43:29.044Z,23.05
2023-05-14T17:45:56.312Z,23.01
2023-05-14T17:48:24.122Z,22.96
2023-05-14T17:50:54.062Z,22.89
2023-05-14T17:53:21.190Z,22.87
2023-05-14T17:55:48.594Z,22.81
2023-05-14T17:58:16.221Z,22.73
2023-05-14T18:00:43.816Z,22.71
2023-05-14T18:03:11.314Z,22.68
2023-05-14T18:05:38.767Z,22.67
2023-05-14T18:08:06.777Z,22.59
2023-05-14T18:10:34.082Z,22.57
2023-05-14T18:13:00.944Z,22.49
2023-05-14T18:15:28.158Z,22.44
2023-05-14T18:17:55.086Z,22.37
2023-05-14T18:20:22.886Z,22.34
2023-05-14T18:22:50.723Z,22.32
2023-05-14T18:25:20.777Z,22.32
2023-05-14T18:27:48.193Z,22.23
2023-05-14T18:30:15.718Z,22.19
2023-05-14T18:32:44.173Z,22.13
2023-05-14T18:35:12.240Z,22.10
2023-05-14T18:37:39.343Z,22.08
2023-05-14T18:40:09.008Z,22.05
2023-05-14T18:42:36.118Z,22.00
2023-05-14T18:45:04.670Z,21.98
2023-05-14T18:47:33.384Z,21.91
2023-05-14T18:50:02.123Z,21.89
2023-05-14T18:52:29.336Z,21.85
2023-05-14T18:54:57.896Z,21.83
2023-05-14T18:57:26.176Z,21.79
2023-05-14T18:59:53.367Z,21.76
2023-05-14T19:02:21.512Z,21.71
2023-05-14T19:04:52.803Z,21.68
2023-05-14T19:07:25.103Z,21.61
2023-05-14T19:09:53.769Z,21.63
2023-05-14T19:12:21.800Z,21.58
2023-05-14T19:14:52.668Z,21.56
2023-05-14T19:17:21.670Z,21.49
2023-05-14T19:19:48.904Z,21.48
2023-05-14T19:22:15.814Z,21.44
2023-05-14T19:24:42.978Z,21.40
2023-05-14T19:27:10.095Z,21.38
2023-05-14T19:29:37.258Z,21.34
2023-05-14T19:32:06.208Z,21.30
2023-05-14T19:34:33.392Z,21.28
2023-05-14T19:37:00.614Z,21.25
2023-05-14T19:39:27.780Z,21.20
2023-05-14T19:41:54.653Z,21.13
2023-05-14T19:44:21.782Z,21.12
2023-05-14T19:46:48.746Z,21.10
2023-05-14T19:49:15.929Z,21.10
2023-05-14T19:51:42.862Z,21.02
2023-05-14T19:54:10.040Z,21.02
2023-05-14T19:56:36.913Z,20.99
2023-05-14T19:59:07.027Z,20.98
2023-05-14T20:01:34.846Z,20.91
2023-05-14T20:04:02.404Z,20.90
2023-05-14T20:06:29.969Z,20.86
2023-05-14T20:08:58.214Z,20.83
2023-05-14T20:11:24.986Z,20.80
2023-05-14T20:13:52.084Z,20.78
2023-05-14T20:16:19.034Z,20.74
2023-05-14T20:18:48.164Z,20.66
2023-05-14T20:21:15.007Z,20.69
2023-05-14T20:23:42.251Z,20.65
2023-05-14T20:26:09.223Z,20.60
2023-05-14T20:28:36.457Z,20.58
2023-05-14T20:31:04.141Z,20.54
2023-05-14T20:33:31.413Z,20.50
2023-05-14T20:35:58.330Z,20.49
2023-05-14T20:38:29.705Z,20.44
2023-05-14T20:40:56.556Z,20.39
2023-05-14T20:43:23.783Z,20.41
2023-05-14T20:45:50.596Z,20.35
2023-05-14T20:48:17.802Z,20.27
2023-05-14T20:50:44.699Z,20.31
2023-05-14T20:53:11.835Z,20.27
2023-05-14T20:55:41.229Z,20.26
2023-05-14T20:58:08.662Z,20.22
2023-05-14T21:00:35.465Z,20.19
2023-05-14T21:03:02.718Z,20.17
2023-05-14T21:05:29.661Z,20.12
2023-05-14T21:07:56.774Z,20.11
2023-05-14T21:10:23.946Z,20.07
2023-05-14T21:12:52.344Z,20.02
2023-05-14T21:15:19.108Z,20.00
2023-05-14T21:17:46.140Z,19.98
2023-05-14T21:20:15.429Z,19.96
2023-05-14T21:22:42.508Z,19.86
2023-05-14T21:25:09.703Z,19.81
2023-05-14T21:27:37.049Z,19.74
2023-05-14T21:30:04.077Z,19.78
2023-05-14T21:32:31.158Z,19.73
2023-05-14T21:34:57.959Z,19.73
2023-05-14T21:37:25.006Z,19.69
2023-05-14T21:39:51.697Z,19.53
2023-05-14T21:42:20.959Z,19.62
2023-05-14T21:44:47.807Z,19.54
2023-05-14T21:47:15.340Z,19.56
2023-05-14T21:49:42.476Z,19.50
2023-05-14T21:52:09.222Z,19.56
2023-05-14T21:54:36.232Z,19.55
2023-05-14T21:57:03.036Z,19.42
2023-05-14T21:59:30.031Z,19.47
2023-05-14T22:02:06.972Z,19.46
2023-05-14T22:04:35.359Z,19.37
2023-05-14T22:07:02.260Z,19.33
2023-05-14T22:09:30.387Z,19.34
2023-05-14T22:11:57.804Z,19.34
2023-05-14T22:14:26.564Z,19.33
2023-05-14T22:16:53.491Z,19.32
2023-05-14T22:19:20.543Z,19.20
2023-05-14T22:21:47.293Z,19.25
2023-05-14T22:24:14.346Z,19.16
2023-05-14T22:26:41.055Z,19.07
2023-05-14T22:29:08.123Z,19.08
2023-05-14T22:31:34.862Z,19.04
2023-05-14T22:34:01.866Z,19.02
2023-05-14T22:36:28.558Z,18.96
2023-05-14T22:38:55.652Z,18.96
2023-05-14T22:41:22.334Z,19.01
2023-05-14T22:43:49.502Z,18.89
2023-05-14T22:46:16.283Z,18.87
2023-05-14T22:48:43.376Z,18.88
2023-05-14T22:51:10.116Z,18.83
2023-05-14T22:53:37.185Z,18.77
2023-05-14T22:56:04.154Z,18.80
2023-05-14T22:58:31.169Z,18.76
2023-05-14T23:00:57.885Z,18.75
2023-05-14T23:03:24.908Z,18.75
2023-05-14T23:05:52.148Z,18.71
2023-05-14T23:08:19.226Z,18.69
2023-05-14T23:10:45.908Z,18.68
2023-05-14T23:13:12.932Z,18.63
2023-05-14T23:15:39.728Z,18.62
2023-05-14T23:18:07.807Z,18.63
2023-05-14T23:20:34.705Z,18.61
2023-05-14T23:23:01.722Z,18.58
2023-05-14T23:25:28.709Z,18.61
2023-05-14T23:27:55.769Z,18.58
2023-05-14T23:30:22.500Z,18.58
2023-05-14T23:32:49.602Z,18.51
2023-05-14T23:35:16.404Z,18.54
2023-05-14T23:37:47.208Z,18.54
2023-05-14T23:40:14.293Z,18.52
2023-05-14T23:42:41.376Z,18.45
2023-05-14T23:45:08.593Z,18.49
2023-05-14T23:47:35.782Z,18.45
2023-05-14T23:50:02.920Z,18.45
2023-05-14T23:52:29.897Z,18.40
2023-05-14T23:54:56.607Z,18.40
2023-05-14T23:57:23.573Z,18.37
2023-05-14T23:59:50.451Z,18.35
